sensor_id;sensor_type;location;lat;lon;timestamp;P1;durP1;ratioP1;P2;durP2;ratioP2
23434;SDS011;11890;45.380;11.028;2023-05-13T00:00:17;7.18;;;3.20;;
23434;SDS011;11890;45.380;11.028;2023-05-13T00:02:45;5.18;;;3.03;;
23434;SDS011;11890;45.380;11.028;2023-05-13T00:05:13;3.10;;;2.70;;
23434;SDS011;11890;45.380;11.028;2023-05-13T00:07:41;3.53;;;2.80;;
23434;SDS011;11890;45.380;11.028;2023-05-13T00:10:09;3.95;;;3.03;;
23434;SDS011;11890;45.380;11.028;2023-05-13T00:12:37;5.05;;;3.22;;
23434;SDS011;11890;45.380;11.028;2023-05-13T00:15:05;5.75;;;3.40;;
23434;SDS011;11890;45.380;11.028;2023-05-13T00:17:33;3.67;;;3.20;;
23434;SDS011;11890;45.380;11.028;2023-05-13T00:20:02;6.40;;;3.70;;
23434;SDS011;11890;45.380;11.028;2023-05-13T00:22:30;4.93;;;3.35;;
23434;SDS011;11890;45.380;11.028;2023-05-13T00:24:58;4.40;;;3.35;;
23434;SDS011;11890;45.380;11.028;2023-05-13T00:27:26;7.30;;;3.80;;
23434;SDS011;11890;45.380;11.028;2023-05-13T00:29:54;5.40;;;3.65;;
23434;SDS011;11890;45.380;11.028;2023-05-13T00:32:22;5.10;;;3.88;;
23434;SDS011;11890;45.380;11.028;2023-05-13T00:34:50;8.48;;;4.07;;
23434;SDS011;11890;45.380;11.028;2023-05-13T00:37:18;4.53;;;3.63;;
23434;SDS011;11890;45.380;11.028;2023-05-13T00:39:46;5.88;;;4.20;;
23434;SDS011;11890;45.380;11.028;2023-05-13T00:42:14;6.93;;;4.35;;
23434;SDS011;11890;45.380;11.028;2023-05-13T00:44:42;5.35;;;3.60;;
23434;SDS011;11890;45.380;11.028;2023-05-13T00:47:10;5.85;;;4.05;;
23434;SDS011;11890;45.380;11.028;2023-05-13T00:49:38;4.97;;;3.95;;
23434;SDS011;11890;45.380;11.028;2023-05-13T00:52:06;4.35;;;3.92;;
23434;SDS011;11890;45.380;11.028;2023-05-13T00:54:34;5.05;;;3.70;;
23434;SDS011;11890;45.380;11.028;2023-05-13T00:57:02;5.03;;;3.90;;
23434;SDS011;11890;45.380;11.028;2023-05-13T00:59:30;5.20;;;3.92;;
23434;SDS011;11890;45.380;11.028;2023-05-13T01:04:42;4.72;;;4.22;;
23434;SDS011;11890;45.380;11.028;2023-05-13T01:07:13;5.57;;;4.40;;
23434;SDS011;11890;45.380;11.028;2023-05-13T01:12:37;4.93;;;4.15;;
23434;SDS011;11890;45.380;11.028;2023-05-13T01:20:09;7.68;;;3.92;;
23434;SDS011;11890;45.380;11.028;2023-05-13T01:22:37;5.38;;;3.80;;
23434;SDS011;11890;45.380;11.028;2023-05-13T01:25:05;6.88;;;4.00;;
23434;SDS011;11890;45.380;11.028;2023-05-13T01:27:34;7.85;;;3.95;;
23434;SDS011;11890;45.380;11.028;2023-05-13T01:30:03;4.15;;;3.72;;
23434;SDS011;11890;45.380;11.028;2023-05-13T01:32:32;6.38;;;3.75;;
23434;SDS011;11890;45.380;11.028;2023-05-13T01:35:00;6.32;;;4.00;;
23434;SDS011;11890;45.380;11.028;2023-05-13T01:37:30;5.80;;;4.35;;
23434;SDS011;11890;45.380;11.028;2023-05-13T01:39:59;8.10;;;4.70;;
23434;SDS011;11890;45.380;11.028;2023-05-13T01:42:30;5.82;;;4.45;;
23434;SDS011;11890;45.380;11.028;2023-05-13T01:44:59;7.88;;;5.25;;
23434;SDS011;11890;45.380;11.028;2023-05-13T01:47:27;7.13;;;5.53;;
23434;SDS011;11890;45.380;11.028;2023-05-13T01:49:55;6.63;;;4.57;;
23434;SDS011;11890;45.380;11.028;2023-05-13T01:52:23;7.43;;;4.90;;
23434;SDS011;11890;45.380;11.028;2023-05-13T01:54:52;6.03;;;3.97;;
23434;SDS011;11890;45.380;11.028;2023-05-13T01:57:20;5.00;;;4.22;;
23434;SDS011;11890;45.380;11.028;2023-05-13T01:59:48;6.40;;;3.83;;
23434;SDS011;11890;45.380;11.028;2023-05-13T02:02:16;5.40;;;4.15;;
23434;SDS011;11890;45.380;11.028;2023-05-13T02:04:44;5.65;;;4.28;;
23434;SDS011;11890;45.380;11.028;2023-05-13T02:07:12;5.95;;;4.00;;
23434;SDS011;11890;45.380;11.028;2023-05-13T02:09:39;5.82;;;4.20;;
23434;SDS011;11890;45.380;11.028;2023-05-13T02:12:08;5.70;;;3.42;;
23434;SDS011;11890;45.380;11.028;2023-05-13T02:14:36;5.18;;;3.85;;
23434;SDS011;11890;45.380;11.028;2023-05-13T02:17:04;6.05;;;4.38;;
23434;SDS011;11890;45.380;11.028;2023-05-13T02:19:32;6.30;;;4.32;;
23434;SDS011;11890;45.380;11.028;2023-05-13T02:22:00;5.53;;;4.05;;
23434;SDS011;11890;45.380;11.028;2023-05-13T02:26:57;8.13;;;4.70;;
23434;SDS011;11890;45.380;11.028;2023-05-13T02:29:25;5.68;;;4.28;;
23434;SDS011;11890;45.380;11.028;2023-05-13T02:31:54;6.82;;;4.55;;
23434;SDS011;11890;45.380;11.028;2023-05-13T02:34:22;7.78;;;4.82;;
23434;SDS011;11890;45.380;11.028;2023-05-13T02:36:52;7.88;;;4.70;;
23434;SDS011;11890;45.380;11.028;2023-05-13T02:39:20;5.68;;;4.63;;
23434;SDS011;11890;45.380;11.028;2023-05-13T02:41:48;8.95;;;5.07;;
23434;SDS011;11890;45.380;11.028;2023-05-13T02:44:16;5.88;;;5.05;;
23434;SDS011;11890;45.380;11.028;2023-05-13T02:46:45;7.10;;;5.25;;
23434;SDS011;11890;45.380;11.028;2023-05-13T02:49:13;9.85;;;4.82;;
23434;SDS011;11890;45.380;11.028;2023-05-13T02:51:41;7.70;;;4.15;;
23434;SDS011;11890;45.380;11.028;2023-05-13T02:54:08;5.90;;;4.40;;
23434;SDS011;11890;45.380;11.028;2023-05-13T02:56:37;5.10;;;4.60;;
23434;SDS011;11890;45.380;11.028;2023-05-13T02:59:05;4.22;;;3.50;;
23434;SDS011;11890;45.380;11.028;2023-05-13T03:01:34;5.03;;;4.45;;
23434;SDS011;11890;45.380;11.028;2023-05-13T03:04:02;6.38;;;4.07;;
23434;SDS011;11890;45.380;11.028;2023-05-13T03:06:30;4.28;;;3.20;;
23434;SDS011;11890;45.380;11.028;2023-05-13T03:08:58;7.88;;;4.28;;
23434;SDS011;11890;45.380;11.028;2023-05-13T03:11:26;4.30;;;3.63;;
23434;SDS011;11890;45.380;11.028;2023-05-13T03:13:54;4.05;;;3.13;;
23434;SDS011;11890;45.380;11.028;2023-05-13T03:16:22;4.47;;;3.20;;
23434;SDS011;11890;45.380;11.028;2023-05-13T03:18:50;3.75;;;2.85;;
23434;SDS011;11890;45.380;11.028;2023-05-13T03:21:18;5.07;;;3.20;;
23434;SDS011;11890;45.380;11.028;2023-05-13T03:23:46;4.22;;;2.53;;
23434;SDS011;11890;45.380;11.028;2023-05-13T03:26:16;6.65;;;2.80;;
23434;SDS011;11890;45.380;11.028;2023-05-13T03:28:44;6.03;;;2.35;;
23434;SDS011;11890;45.380;11.028;2023-05-13T03:31:14;5.85;;;2.65;;
23434;SDS011;11890;45.380;11.028;2023-05-13T03:33:51;4.93;;;2.88;;
23434;SDS011;11890;45.380;11.028;2023-05-13T03:36:19;6.20;;;2.60;;
23434;SDS011;11890;45.380;11.028;2023-05-13T03:38:48;5.05;;;2.42;;
23434;SDS011;11890;45.380;11.028;2023-05-13T03:41:16;3.90;;;2.45;;
23434;SDS011;11890;45.380;11.028;2023-05-13T03:43:46;3.63;;;2.63;;
23434;SDS011;11890;45.380;11.028;2023-05-13T03:46:14;4.60;;;2.25;;
23434;SDS011;11890;45.380;11.028;2023-05-13T03:48:43;3.13;;;2.13;;
23434;SDS011;11890;45.380;11.028;2023-05-13T03:51:11;3.58;;;2.55;;
23434;SDS011;11890;45.380;11.028;2023-05-13T03:53:39;4.32;;;2.67;;
23434;SDS011;11890;45.380;11.028;2023-05-13T03:56:07;3.05;;;2.47;;
23434;SDS011;11890;45.380;11.028;2023-05-13T03:58:36;3.67;;;2.53;;
23434;SDS011;11890;45.380;11.028;2023-05-13T04:01:05;3.53;;;1.98;;
23434;SDS011;11890;45.380;11.028;2023-05-13T04:03:33;4.55;;;2.33;;
23434;SDS011;11890;45.380;11.028;2023-05-13T04:06:01;2.70;;;2.30;;
23434;SDS011;11890;45.380;11.028;2023-05-13T04:08:29;3.17;;;2.30;;
23434;SDS011;11890;45.380;11.028;2023-05-13T04:10:57;3.45;;;2.35;;
23434;SDS011;11890;45.380;11.028;2023-05-13T04:13:25;3.13;;;2.45;;
23434;SDS011;11890;45.380;11.028;2023-05-13T04:15:53;4.63;;;2.75;;
23434;SDS011;11890;45.380;11.028;2023-05-13T04:18:21;5.20;;;2.40;;
23434;SDS011;11890;45.380;11.028;2023-05-13T04:20:49;3.15;;;2.30;;
23434;SDS011;11890;45.380;11.028;2023-05-13T04:23:17;4.18;;;2.15;;
23434;SDS011;11890;45.380;11.028;2023-05-13T04:25:49;2.47;;;2.10;;
23434;SDS011;11890;45.380;11.028;2023-05-13T04:28:20;4.85;;;2.67;;
23434;SDS011;11890;45.380;11.028;2023-05-13T04:30:49;5.38;;;2.40;;
23434;SDS011;11890;45.380;11.028;2023-05-13T04:33:17;5.90;;;2.45;;
23434;SDS011;11890;45.380;11.028;2023-05-13T04:35:47;6.63;;;2.50;;
23434;SDS011;11890;45.380;11.028;2023-05-13T04:38:16;6.07;;;2.90;;
23434;SDS011;11890;45.380;11.028;2023-05-13T04:40:45;3.72;;;2.50;;
23434;SDS011;11890;45.380;11.028;2023-05-13T04:43:19;5.10;;;2.70;;
23434;SDS011;11890;45.380;11.028;2023-05-13T04:45:54;6.25;;;2.30;;
23434;SDS011;11890;45.380;11.028;2023-05-13T04:48:22;4.32;;;2.60;;
23434;SDS011;11890;45.380;11.028;2023-05-13T04:50:56;4.85;;;2.33;;
23434;SDS011;11890;45.380;11.028;2023-05-13T04:53:26;4.65;;;2.25;;
23434;SDS011;11890;45.380;11.028;2023-05-13T04:55:56;35.75;;;23.73;;
23434;SDS011;11890;45.380;11.028;2023-05-13T04:58:28;13.38;;;9.35;;
23434;SDS011;11890;45.380;11.028;2023-05-13T05:00:56;13.73;;;8.27;;
23434;SDS011;11890;45.380;11.028;2023-05-13T05:03:24;7.68;;;3.00;;
23434;SDS011;11890;45.380;11.028;2023-05-13T05:05:53;7.28;;;2.75;;
23434;SDS011;11890;45.380;11.028;2023-05-13T05:08:22;6.25;;;2.80;;
23434;SDS011;11890;45.380;11.028;2023-05-13T05:10:50;4.43;;;2.70;;
23434;SDS011;11890;45.380;11.028;2023-05-13T05:13:19;5.43;;;2.75;;
23434;SDS011;11890;45.380;11.028;2023-05-13T05:15:47;10.40;;;6.05;;
23434;SDS011;11890;45.380;11.028;2023-05-13T05:18:15;6.90;;;4.95;;
23434;SDS011;11890;45.380;11.028;2023-05-13T05:20:47;3.95;;;2.95;;
23434;SDS011;11890;45.380;11.028;2023-05-13T05:23:17;5.93;;;3.30;;
23434;SDS011;11890;45.380;11.028;2023-05-13T05:25:45;4.55;;;3.13;;
23434;SDS011;11890;45.380;11.028;2023-05-13T05:28:19;4.20;;;2.95;;
23434;SDS011;11890;45.380;11.028;2023-05-13T05:30:47;5.57;;;2.80;;
23434;SDS011;11890;45.380;11.028;2023-05-13T05:33:24;6.70;;;3.40;;
23434;SDS011;11890;45.380;11.028;2023-05-13T05:35:53;7.70;;;3.83;;
23434;SDS011;11890;45.380;11.028;2023-05-13T05:38:21;8.10;;;3.72;;
23434;SDS011;11890;45.380;11.028;2023-05-13T05:40:54;7.35;;;3.47;;
23434;SDS011;11890;45.380;11.028;2023-05-13T05:43:23;5.45;;;3.63;;
23434;SDS011;11890;45.380;11.028;2023-05-13T05:45:51;5.13;;;3.22;;
23434;SDS011;11890;45.380;11.028;2023-05-13T05:48:20;5.50;;;2.80;;
23434;SDS011;11890;45.380;11.028;2023-05-13T05:50:49;5.43;;;2.92;;
23434;SDS011;11890;45.380;11.028;2023-05-13T05:53:25;6.60;;;2.90;;
23434;SDS011;11890;45.380;11.028;2023-05-13T05:55:53;5.32;;;2.50;;
23434;SDS011;11890;45.380;11.028;2023-05-13T05:58:21;5.72;;;2.75;;
23434;SDS011;11890;45.380;11.028;2023-05-13T06:00:50;4.55;;;2.17;;
23434;SDS011;11890;45.380;11.028;2023-05-13T06:03:18;2.92;;;2.17;;
23434;SDS011;11890;45.380;11.028;2023-05-13T06:05:46;3.67;;;2.15;;
23434;SDS011;11890;45.380;11.028;2023-05-13T06:08:14;4.05;;;2.40;;
23434;SDS011;11890;45.380;11.028;2023-05-13T06:10:42;3.72;;;1.80;;
23434;SDS011;11890;45.380;11.028;2023-05-13T06:13:10;4.75;;;2.28;;
23434;SDS011;11890;45.380;11.028;2023-05-13T06:15:38;4.20;;;2.35;;
23434;SDS011;11890;45.380;11.028;2023-05-13T06:18:06;3.33;;;1.90;;
23434;SDS011;11890;45.380;11.028;2023-05-13T06:20:34;3.65;;;2.28;;
23434;SDS011;11890;45.380;11.028;2023-05-13T06:23:02;4.80;;;2.03;;
23434;SDS011;11890;45.380;11.028;2023-05-13T06:25:30;3.67;;;2.47;;
23434;SDS011;11890;45.380;11.028;2023-05-13T06:27:58;6.18;;;2.55;;
23434;SDS011;11890;45.380;11.028;2023-05-13T06:30:29;5.07;;;2.67;;
23434;SDS011;11890;45.380;11.028;2023-05-13T06:32:57;6.07;;;2.50;;
23434;SDS011;11890;45.380;11.028;2023-05-13T06:35:29;4.35;;;2.53;;
23434;SDS011;11890;45.380;11.028;2023-05-13T06:37:59;5.25;;;2.33;;
23434;SDS011;11890;45.380;11.028;2023-05-13T06:40:27;2.72;;;2.10;;
23434;SDS011;11890;45.380;11.028;2023-05-13T06:42:56;4.00;;;2.63;;
23434;SDS011;11890;45.380;11.028;2023-05-13T06:45:35;3.70;;;2.35;;
23434;SDS011;11890;45.380;11.028;2023-05-13T06:48:03;4.05;;;2.50;;
23434;SDS011;11890;45.380;11.028;2023-05-13T06:50:31;3.63;;;2.10;;
23434;SDS011;11890;45.380;11.028;2023-05-13T06:52:59;3.80;;;2.13;;
23434;SDS011;11890;45.380;11.028;2023-05-13T06:55:27;5.50;;;2.00;;
23434;SDS011;11890;45.380;11.028;2023-05-13T06:57:55;3.65;;;2.28;;
23434;SDS011;11890;45.380;11.028;2023-05-13T07:00:23;3.90;;;2.20;;
23434;SDS011;11890;45.380;11.028;2023-05-13T07:02:52;3.10;;;2.17;;
23434;SDS011;11890;45.380;11.028;2023-05-13T07:05:35;3.88;;;2.00;;
23434;SDS011;11890;45.380;11.028;2023-05-13T07:10:36;3.85;;;1.92;;
23434;SDS011;11890;45.380;11.028;2023-05-13T07:13:04;2.75;;;2.17;;
23434;SDS011;11890;45.380;11.028;2023-05-13T07:15:33;3.92;;;2.17;;
23434;SDS011;11890;45.380;11.028;2023-05-13T07:18:00;3.53;;;2.08;;
23434;SDS011;11890;45.380;11.028;2023-05-13T07:20:28;3.28;;;2.17;;
23434;SDS011;11890;45.380;11.028;2023-05-13T07:22:57;4.55;;;2.10;;
23434;SDS011;11890;45.380;11.028;2023-05-13T07:25:25;3.53;;;2.35;;
23434;SDS011;11890;45.380;11.028;2023-05-13T07:27:53;5.57;;;2.33;;
23434;SDS011;11890;45.380;11.028;2023-05-13T07:30:21;3.22;;;2.10;;
23434;SDS011;11890;45.380;11.028;2023-05-13T07:32:49;3.42;;;2.40;;
23434;SDS011;11890;45.380;11.028;2023-05-13T07:35:19;3.22;;;2.00;;
23434;SDS011;11890;45.380;11.028;2023-05-13T07:37:48;4.63;;;2.15;;
23434;SDS011;11890;45.380;11.028;2023-05-13T07:40:16;4.95;;;2.00;;
23434;SDS011;11890;45.380;11.028;2023-05-13T07:42:44;5.18;;;2.15;;
23434;SDS011;11890;45.380;11.028;2023-05-13T07:45:12;3.97;;;2.20;;
23434;SDS011;11890;45.380;11.028;2023-05-13T07:47:40;3.00;;;2.08;;
23434;SDS011;11890;45.380;11.028;2023-05-13T07:50:10;4.10;;;1.83;;
23434;SDS011;11890;45.380;11.028;2023-05-13T07:52:38;4.30;;;1.98;;
23434;SDS011;11890;45.380;11.028;2023-05-13T07:55:06;5.32;;;2.65;;
23434;SDS011;11890;45.380;11.028;2023-05-13T07:57:36;3.33;;;2.28;;
23434;SDS011;11890;45.380;11.028;2023-05-13T08:00:04;5.05;;;2.78;;
23434;SDS011;11890;45.380;11.028;2023-05-13T08:02:38;4.70;;;1.90;;
23434;SDS011;11890;45.380;11.028;2023-05-13T08:05:07;2.78;;;1.38;;
23434;SDS011;11890;45.380;11.028;2023-05-13T08:07:35;3.35;;;0.85;;
23434;SDS011;11890;45.380;11.028;2023-05-13T08:10:03;1.17;;;0.80;;
23434;SDS011;11890;45.380;11.028;2023-05-13T08:12:31;2.83;;;1.10;;
23434;SDS011;11890;45.380;11.028;2023-05-13T08:14:59;3.50;;;1.10;;
23434;SDS011;11890;45.380;11.028;2023-05-13T08:17:29;3.30;;;1.20;;
23434;SDS011;11890;45.380;11.028;2023-05-13T08:19:59;3.03;;;1.20;;
23434;SDS011;11890;45.380;11.028;2023-05-13T08:22:27;2.17;;;1.20;;
23434;SDS011;11890;45.380;11.028;2023-05-13T08:24:55;2.92;;;1.10;;
23434;SDS011;11890;45.380;11.028;2023-05-13T08:27:25;4.05;;;1.00;;
23434;SDS011;11890;45.380;11.028;2023-05-13T08:29:54;2.58;;;0.93;;
23434;SDS011;11890;45.380;11.028;2023-05-13T08:32:22;1.83;;;0.80;;
23434;SDS011;11890;45.380;11.028;2023-05-13T08:34:50;4.00;;;0.98;;
23434;SDS011;11890;45.380;11.028;2023-05-13T08:37:18;3.25;;;0.90;;
23434;SDS011;11890;45.380;11.028;2023-05-13T08:39:46;2.10;;;1.08;;
23434;SDS011;11890;45.380;11.028;2023-05-13T08:42:14;2.10;;;1.27;;
23434;SDS011;11890;45.380;11.028;2023-05-13T08:44:45;1.92;;;1.20;;
23434;SDS011;11890;45.380;11.028;2023-05-13T08:49:56;3.88;;;1.50;;
23434;SDS011;11890;45.380;11.028;2023-05-13T08:52:24;3.60;;;1.38;;
23434;SDS011;11890;45.380;11.028;2023-05-13T08:54:54;1.95;;;1.10;;
23434;SDS011;11890;45.380;11.028;2023-05-13T08:57:26;8.68;;;4.18;;
23434;SDS011;11890;45.380;11.028;2023-05-13T08:59:54;4.60;;;1.77;;
23434;SDS011;11890;45.380;11.028;2023-05-13T09:02:22;1.98;;;1.00;;
23434;SDS011;11890;45.380;11.028;2023-05-13T09:04:51;2.35;;;1.00;;
23434;SDS011;11890;45.380;11.028;2023-05-13T09:07:20;2.17;;;0.80;;
23434;SDS011;11890;45.380;11.028;2023-05-13T09:09:48;2.08;;;0.82;;
23434;SDS011;11890;45.380;11.028;2023-05-13T09:12:40;1.65;;;0.70;;
23434;SDS011;11890;45.380;11.028;2023-05-13T09:15:08;1.75;;;0.77;;
23434;SDS011;11890;45.380;11.028;2023-05-13T09:17:39;4.47;;;1.05;;
23434;SDS011;11890;45.380;11.028;2023-05-13T09:20:12;3.28;;;1.20;;
23434;SDS011;11890;45.380;11.028;2023-05-13T09:22:47;2.55;;;0.95;;
23434;SDS011;11890;45.380;11.028;2023-05-13T09:25:15;3.75;;;1.30;;
23434;SDS011;11890;45.380;11.028;2023-05-13T09:27:47;1.55;;;1.05;;
23434;SDS011;11890;45.380;11.028;2023-05-13T09:30:15;3.90;;;1.55;;
23434;SDS011;11890;45.380;11.028;2023-05-13T09:35:35;3.65;;;1.58;;
23434;SDS011;11890;45.380;11.028;2023-05-13T09:40:40;2.65;;;1.10;;
23434;SDS011;11890;45.380;11.028;2023-05-13T09:43:08;3.92;;;1.00;;
23434;SDS011;11890;45.380;11.028;2023-05-13T09:45:37;2.17;;;1.30;;
23434;SDS011;11890;45.380;11.028;2023-05-13T09:48:05;2.17;;;1.08;;
23434;SDS011;11890;45.380;11.028;2023-05-13T09:50:33;2.30;;;0.90;;
23434;SDS011;11890;45.380;11.028;2023-05-13T09:53:10;5.93;;;1.50;;
23434;SDS011;11890;45.380;11.028;2023-05-13T09:55:42;3.15;;;1.42;;
23434;SDS011;11890;45.380;11.028;2023-05-13T09:58:10;4.63;;;1.58;;
23434;SDS011;11890;45.380;11.028;2023-05-13T10:00:39;3.10;;;1.63;;
23434;SDS011;11890;45.380;11.028;2023-05-13T10:03:08;4.18;;;1.52;;
23434;SDS011;11890;45.380;11.028;2023-05-13T10:05:38;2.40;;;1.60;;
23434;SDS011;11890;45.380;11.028;2023-05-13T10:08:08;4.80;;;1.40;;
23434;SDS011;11890;45.380;11.028;2023-05-13T10:10:39;3.85;;;1.67;;
23434;SDS011;11890;45.380;11.028;2023-05-13T10:13:07;4.20;;;2.22;;
23434;SDS011;11890;45.380;11.028;2023-05-13T10:15:48;3.55;;;1.95;;
23434;SDS011;11890;45.380;11.028;2023-05-13T10:18:16;4.03;;;1.88;;
23434;SDS011;11890;45.380;11.028;2023-05-13T10:20:45;6.25;;;2.15;;
23434;SDS011;11890;45.380;11.028;2023-05-13T10:23:13;10.60;;;7.25;;
23434;SDS011;11890;45.380;11.028;2023-05-13T10:25:41;4.25;;;2.30;;
23434;SDS011;11890;45.380;11.028;2023-05-13T10:28:10;2.78;;;1.88;;
23434;SDS011;11890;45.380;11.028;2023-05-13T10:30:38;1.98;;;1.35;;
23434;SDS011;11890;45.380;11.028;2023-05-13T10:33:06;2.65;;;1.02;;
23434;SDS011;11890;45.380;11.028;2023-05-13T10:35:35;3.78;;;1.52;;
23434;SDS011;11890;45.380;11.028;2023-05-13T10:43:16;2.58;;;1.30;;
23434;SDS011;11890;45.380;11.028;2023-05-13T10:45:49;3.10;;;1.45;;
23434;SDS011;11890;45.380;11.028;2023-05-13T10:48:17;3.50;;;1.08;;
23434;SDS011;11890;45.380;11.028;2023-05-13T10:56:11;4.22;;;1.40;;
23434;SDS011;11890;45.380;11.028;2023-05-13T10:58:39;3.92;;;1.35;;
23434;SDS011;11890;45.380;11.028;2023-05-13T11:01:26;3.10;;;1.75;;
23434;SDS011;11890;45.380;11.028;2023-05-13T11:03:58;13.63;;;8.70;;
23434;SDS011;11890;45.380;11.028;2023-05-13T11:06:33;5.00;;;2.35;;
23434;SDS011;11890;45.380;11.028;2023-05-13T11:09:03;4.22;;;1.80;;
23434;SDS011;11890;45.380;11.028;2023-05-13T11:11:32;5.00;;;1.35;;
23434;SDS011;11890;45.380;11.028;2023-05-13T11:19:51;2.47;;;1.15;;
23434;SDS011;11890;45.380;11.028;2023-05-13T11:22:20;3.90;;;1.70;;
23434;SDS011;11890;45.380;11.028;2023-05-13T11:25:06;4.90;;;1.60;;
23434;SDS011;11890;45.380;11.028;2023-05-13T11:27:38;3.42;;;0.70;;
23434;SDS011;11890;45.380;11.028;2023-05-13T11:30:07;2.27;;;1.40;;
23434;SDS011;11890;45.380;11.028;2023-05-13T11:37:51;2.63;;;1.02;;
23434;SDS011;11890;45.380;11.028;2023-05-13T11:40:22;2.38;;;1.20;;
23434;SDS011;11890;45.380;11.028;2023-05-13T11:42:51;3.08;;;1.30;;
23434;SDS011;11890;45.380;11.028;2023-05-13T11:45:20;2.63;;;0.95;;
23434;SDS011;11890;45.380;11.028;2023-05-13T11:47:49;4.43;;;1.63;;
23434;SDS011;11890;45.380;11.028;2023-05-13T11:50:18;6.28;;;0.95;;
23434;SDS011;11890;45.380;11.028;2023-05-13T11:52:53;3.15;;;1.27;;
23434;SDS011;11890;45.380;11.028;2023-05-13T11:55:25;2.08;;;1.13;;
23434;SDS011;11890;45.380;11.028;2023-05-13T11:57:54;1.92;;;0.90;;
23434;SDS011;11890;45.380;11.028;2023-05-13T12:00:29;2.85;;;0.98;;
23434;SDS011;11890;45.380;11.028;2023-05-13T12:02:57;2.15;;;0.93;;
23434;SDS011;11890;45.380;11.028;2023-05-13T12:05:26;2.25;;;0.73;;
23434;SDS011;11890;45.380;11.028;2023-05-13T12:07:56;7.90;;;1.23;;
23434;SDS011;11890;45.380;11.028;2023-05-13T12:10:24;2.03;;;0.70;;
23434;SDS011;11890;45.380;11.028;2023-05-13T12:12:53;2.70;;;0.80;;
23434;SDS011;11890;45.380;11.028;2023-05-13T12:15:21;1.73;;;0.70;;
23434;SDS011;11890;45.380;11.028;2023-05-13T12:17:49;2.55;;;0.90;;
23434;SDS011;11890;45.380;11.028;2023-05-13T12:20:18;3.50;;;1.30;;
23434;SDS011;11890;45.380;11.028;2023-05-13T12:28:16;11.10;;;4.63;;
23434;SDS011;11890;45.380;11.028;2023-05-13T12:30:53;5.00;;;2.10;;
23434;SDS011;11890;45.380;11.028;2023-05-13T12:33:42;4.28;;;2.00;;
23434;SDS011;11890;45.380;11.028;2023-05-13T12:36:26;3.00;;;1.60;;
23434;SDS011;11890;45.380;11.028;2023-05-13T12:39:06;5.35;;;1.98;;
23434;SDS011;11890;45.380;11.028;2023-05-13T12:41:38;4.50;;;1.70;;
23434;SDS011;11890;45.380;11.028;2023-05-13T12:44:18;4.70;;;2.20;;
23434;SDS011;11890;45.380;11.028;2023-05-13T12:46:59;3.03;;;1.25;;
23434;SDS011;11890;45.380;11.028;2023-05-13T12:49:34;2.55;;;0.70;;
23434;SDS011;11890;45.380;11.028;2023-05-13T12:52:04;3.22;;;1.10;;
23434;SDS011;11890;45.380;11.028;2023-05-13T12:54:38;2.65;;;1.00;;
23434;SDS011;11890;45.380;11.028;2023-05-13T12:57:16;1.90;;;0.60;;
23434;SDS011;11890;45.380;11.028;2023-05-13T12:59:54;1.85;;;1.05;;
23434;SDS011;11890;45.380;11.028;2023-05-13T13:02:27;2.30;;;1.00;;
23434;SDS011;11890;45.380;11.028;2023-05-13T13:05:00;2.72;;;0.80;;
23434;SDS011;11890;45.380;11.028;2023-05-13T13:07:31;3.10;;;0.70;;
23434;SDS011;11890;45.380;11.028;2023-05-13T13:10:04;1.73;;;0.50;;
23434;SDS011;11890;45.380;11.028;2023-05-13T13:12:37;5.45;;;0.85;;
23434;SDS011;11890;45.380;11.028;2023-05-13T13:15:12;1.65;;;0.70;;
23434;SDS011;11890;45.380;11.028;2023-05-13T13:18:02;2.15;;;0.80;;
23434;SDS011;11890;45.380;11.028;2023-05-13T13:20:36;1.83;;;0.70;;
23434;SDS011;11890;45.380;11.028;2023-05-13T13:23:07;2.08;;;0.75;;
23434;SDS011;11890;45.380;11.028;2023-05-13T13:25:45;3.85;;;0.70;;
23434;SDS011;11890;45.380;11.028;2023-05-13T13:28:18;0.82;;;0.80;;
23434;SDS011;11890;45.380;11.028;2023-05-13T13:30:52;1.27;;;0.60;;
23434;SDS011;11890;45.380;11.028;2023-05-13T13:33:26;2.50;;;0.52;;
23434;SDS011;11890;45.380;11.028;2023-05-13T13:36:11;0.80;;;0.45;;
23434;SDS011;11890;45.380;11.028;2023-05-13T13:38:51;1.30;;;0.70;;
23434;SDS011;11890;45.380;11.028;2023-05-13T13:41:28;3.70;;;0.90;;
23434;SDS011;11890;45.380;11.028;2023-05-13T13:44:00;1.63;;;0.43;;
23434;SDS011;11890;45.380;11.028;2023-05-13T13:46:35;2.47;;;0.50;;
23434;SDS011;11890;45.380;11.028;2023-05-13T13:49:06;3.58;;;0.73;;
23434;SDS011;11890;45.380;11.028;2023-05-13T13:51:53;0.70;;;0.47;;
23434;SDS011;11890;45.380;11.028;2023-05-13T13:54:25;2.00;;;0.60;;
23434;SDS011;11890;45.380;11.028;2023-05-13T13:56:54;1.88;;;0.80;;
23434;SDS011;11890;45.380;11.028;2023-05-13T13:59:21;2.25;;;0.98;;
23434;SDS011;11890;45.380;11.028;2023-05-13T14:01:49;2.45;;;0.77;;
23434;SDS011;11890;45.380;11.028;2023-05-13T14:04:18;1.80;;;1.25;;
23434;SDS011;11890;45.380;11.028;2023-05-13T14:07:08;2.75;;;0.90;;
23434;SDS011;11890;45.380;11.028;2023-05-13T14:09:37;2.20;;;0.98;;
23434;SDS011;11890;45.380;11.028;2023-05-13T14:12:05;2.92;;;1.02;;
23434;SDS011;11890;45.380;11.028;2023-05-13T14:14:32;2.72;;;0.73;;
23434;SDS011;11890;45.380;11.028;2023-05-13T14:17:00;1.33;;;1.02;;
23434;SDS011;11890;45.380;11.028;2023-05-13T14:19:28;1.70;;;0.50;;
23434;SDS011;11890;45.380;11.028;2023-05-13T14:21:56;3.70;;;0.80;;
23434;SDS011;11890;45.380;11.028;2023-05-13T14:24:24;4.50;;;1.27;;
23434;SDS011;11890;45.380;11.028;2023-05-13T14:26:53;4.03;;;0.85;;
23434;SDS011;11890;45.380;11.028;2023-05-13T14:29:21;1.75;;;0.82;;
23434;SDS011;11890;45.380;11.028;2023-05-13T14:31:51;1.38;;;0.47;;
23434;SDS011;11890;45.380;11.028;2023-05-13T14:34:19;6.63;;;0.85;;
23434;SDS011;11890;45.380;11.028;2023-05-13T14:36:49;0.93;;;0.40;;
23434;SDS011;11890;45.380;11.028;2023-05-13T14:39:18;0.98;;;0.40;;
23434;SDS011;11890;45.380;11.028;2023-05-13T14:41:45;3.97;;;0.50;;
23434;SDS011;11890;45.380;11.028;2023-05-13T14:44:13;1.80;;;0.50;;
23434;SDS011;11890;45.380;11.028;2023-05-13T14:46:41;2.88;;;0.60;;
23434;SDS011;11890;45.380;11.028;2023-05-13T14:49:09;1.65;;;0.57;;
23434;SDS011;11890;45.380;11.028;2023-05-13T14:51:36;3.22;;;0.70;;
23434;SDS011;11890;45.380;11.028;2023-05-13T14:54:04;10.27;;;1.48;;
23434;SDS011;11890;45.380;11.028;2023-05-13T14:56:32;11.98;;;1.48;;
23434;SDS011;11890;45.380;11.028;2023-05-13T14:59:00;10.70;;;1.27;;
23434;SDS011;11890;45.380;11.028;2023-05-13T15:01:28;5.20;;;1.35;;
23434;SDS011;11890;45.380;11.028;2023-05-13T15:03:56;4.43;;;0.95;;
23434;SDS011;11890;45.380;11.028;2023-05-13T15:06:25;3.30;;;0.93;;
23434;SDS011;11890;45.380;11.028;2023-05-13T15:08:54;3.08;;;0.90;;
23434;SDS011;11890;45.380;11.028;2023-05-13T15:11:24;4.00;;;1.15;;
23434;SDS011;11890;45.380;11.028;2023-05-13T15:13:52;3.28;;;1.17;;
23434;SDS011;11890;45.380;11.028;2023-05-13T15:16:20;3.50;;;1.13;;
23434;SDS011;11890;45.380;11.028;2023-05-13T15:18:48;6.50;;;1.70;;
23434;SDS011;11890;45.380;11.028;2023-05-13T15:21:16;2.90;;;1.20;;
23434;SDS011;11890;45.380;11.028;2023-05-13T15:23:44;2.65;;;1.10;;
23434;SDS011;11890;45.380;11.028;2023-05-13T15:26:12;2.17;;;0.90;;
23434;SDS011;11890;45.380;11.028;2023-05-13T15:28:40;2.20;;;0.90;;
23434;SDS011;11890;45.380;11.028;2023-05-13T15:31:08;4.03;;;1.00;;
23434;SDS011;11890;45.380;11.028;2023-05-13T15:33:35;2.83;;;0.90;;
23434;SDS011;11890;45.380;11.028;2023-05-13T15:36:03;2.75;;;1.17;;
23434;SDS011;11890;45.380;11.028;2023-05-13T15:38:31;2.03;;;0.98;;